CST,Max TemperatureF,Mean TemperatureF,Min TemperatureF,Max Dew PointF,MeanDew PointF,Min DewpointF,Max Humidity, Mean Humidity, Min Humidity, Max Sea Level PressureIn, Mean Sea Level PressureIn, Min Sea Level PressureIn, Max VisibilityMiles, Mean VisibilityMiles, Min VisibilityMiles, Max Wind SpeedMPH, Mean Wind SpeedMPH, Max Gust SpeedMPH,PrecipitationIn, CloudCover, Events, WindDirDegrees
2013-2-1,7,-2,-9,2,-5,-16,83,72,57,30.42,30.25,30.10,10,6,1,9,5,,0.06,5,Snow,218
2013-2-2,15,10,5,7,4,1,87,78,56,30.19,30.10,30.02,10,6,2,6,1,,0.00,7,Snow,6
2013-2-3,19,14,10,14,10,6,92,79,59,30.10,30.02,29.95,10,5,1,12,2,,0.05,7,Snow,250
2013-2-4,24,16,8,14,10,3,87,75,50,30.04,29.97,29.91,10,7,1,8,4,,0.04,5,Snow,46
2013-2-5,33,18,3,25,17,0,88,80,66,30.15,29.89,29.77,10,6,0,9,4,,0.06,7,Fog-Snow,247
2013-2-6,37,18,-2,31,9,-8,95,81,64,30.24,30.15,30.05,9,5,0,6,0,,0.00,5,Fog-Rain,80
2013-2-7,35,32,30,34,32,24,100,92,79,30.14,29.99,29.94,10,2,0,12,3,18,0.33,8,Fog-Rain-Snow,27
2013-2-8,30,20,9,23,17,6,92,73,56,30.40,30.32,30.19,10,10,7,9,4,,0.00,4,,37
2013-2-9,32,22,12,27,21,8,88,81,72,30.40,30.24,30.04,10,7,2,12,3,18,0.00,8,,179
2013-2-10,44,37,30,45,34,26,100,92,80,30.04,29.62,29.33,10,5,1,22,5,29,0.52,8,Rain,113
2013-2-11,35,30,24,32,26,15,93,82,67,30.07,29.62,29.37,10,5,1,21,16,34,0.01,8,Snow,247
2013-2-12,35,26,17,23,18,14,93,78,59,30.13,29.99,29.85,10,7,1,10,6,17,0.00,3,,227
2013-2-13,37,24,12,32,21,10,96,80,62,29.87,29.77,29.63,10,8,4,9,2,,0.00,4,,212
2013-2-14,37,32,25,34,26,12,93,72,54,30.10,29.80,29.57,10,9,2,17,8,26,0.01,7,Rain-Snow,284
2013-2-15,24,18,10,10,6,3,84,59,46,30.30,30.25,30.13,10,10,10,12,6,,0.00,1,,295
2013-2-16,21,12,1,5,2,-3,84,69,47,30.29,30.24,30.20,10,10,7,7,3,,0.00,0,,287
2013-2-17,30,14,-2,21,8,-7,84,70,56,30.23,30.11,29.87,10,10,9,9,2,,0.00,0,,98
2013-2-18,44,32,17,32,25,9,89,74,62,29.83,29.63,29.54,10,9,5,15,4,24,0.00,4,Snow,261
2013-2-19,15,10,5,8,2,-4,79,68,56,30.34,29.96,29.73,10,6,1,18,12,30,0.00,6,Snow,276
2013-2-20,23,13,3,7,2,-6,87,63,50,30.45,30.42,30.36,10,10,6,8,3,,0.00,0,,298
2013-2-21,26,16,5,23,14,2,88,81,65,30.47,30.24,29.96,10,7,0,13,5,23,0.04,4,Fog-Snow,65
2013-2-22,30,27,24,27,23,20,93,84,69,29.99,29.87,29.80,10,4,0,14,7,22,0.17,8,Fog-Snow,49
2013-2-23,30,26,21,19,18,15,86,73,57,30.01,29.93,29.88,10,9,6,10,7,,0.00,7,,232
2013-2-24,36,22,8,19,14,5,92,73,48,30.16,30.11,30.03,10,9,6,7,3,,0.00,0,,218
2013-2-25,41,30,19,27,22,16,89,74,57,30.17,30.11,30.03,10,7,2,5,0,,0.00,5,,192
2013-2-26,37,32,28,28,25,22,93,75,62,30.00,29.81,29.72,10,7,2,13,8,29,0.00,6,Snow,39
2013-2-27,35,32,30,30,28,25,88,81,72,29.88,29.75,29.70,10,3,1,13,7,22,0.06,8,Snow,4
2013-2-28,35,32,30,27,25,18,78,70,56,30.16,30.03,29.87,10,10,7,14,8,17,0.00,8,Snow,4